Felix-Klein-Gymnasium, Gttingen, 150m NN
Donnes mto: Actuelle Freitag, 16.11.2018 11:00
Date Horaire Temp. E. Hum. E. P.atmo. Pluie Vent Direction Direction Ensoleilleme P. de rose Temp au vent Rafales
16.11.2018 11:00 5,7 C 84 % 1030,0 hPa 0,0 mm 0,0 km/h (0 Bft) S-SE 167 15 min 3,2 C 5,7 C 0,0 km/h (0 Bft)
16.11.2018 10:45 4,8 C 88 % 1030,2 hPa 0,0 mm 0,0 km/h (0 Bft) S-SE 167 15 min 3,0 C 4,8 C 0,0 km/h (0 Bft)
16.11.2018 10:30 4,0 C 89 % 1030,3 hPa 0,0 mm 0,7 km/h (0 Bft) S-SE 165 15 min 2,4 C 4,0 C 4,8 km/h (1 Bft)
16.11.2018 10:15 3,3 C 91 % 1030,3 hPa 0,0 mm 0,0 km/h (0 Bft) S-SO 195 15 min 2,0 C 3,3 C 0,0 km/h (0 Bft)
16.11.2018 10:00 2,7 C 93 % 1030,3 hPa 0,0 mm 0,0 km/h (0 Bft) S-SO 195 15 min 1,7 C 2,7 C 0,0 km/h (0 Bft)
16.11.2018 09:45 2,1 C 94 % 1030,3 hPa 0,0 mm 0,0 km/h (0 Bft) S-SO 195 15 min 1,2 C 2,1 C 0,0 km/h (0 Bft)
16.11.2018 09:30 1,7 C 95 % 1030,3 hPa 0,0 mm 0,0 km/h (0 Bft) S-SO 195 15 min 1,0 C 1,7 C 0,0 km/h (0 Bft)
16.11.2018 09:15 1,2 C 96 % 1030,3 hPa 0,0 mm 0,0 km/h (0 Bft) S-SO 195 15 min 0,6 C 1,2 C 0,0 km/h (0 Bft)
16.11.2018 09:00 0,9 C 96 % 1030,3 hPa 0,0 mm 0,0 km/h (0 Bft) S-SO 195 0 min 0,3 C 0,9 C 0,0 km/h (0 Bft)
16.11.2018 08:45 0,5 C 96 % 1030,0 hPa 0,0 mm 0,0 km/h (0 Bft) S-SO 195 0 min -0,1 C 0,5 C 0,0 km/h (0 Bft)
16.11.2018 08:30 0,2 C 96 % 1029,8 hPa 0,0 mm 0,0 km/h (0 Bft) S-SO 195 0 min -0,4 C 0,2 C 0,0 km/h (0 Bft)
16.11.2018 08:15 -0,1 C 96 % 1029,6 hPa 0,0 mm 0,0 km/h (0 Bft) S-SO 195 0 min -0,7 C -0,1 C 0,0 km/h (0 Bft)
16.11.2018 08:00 -0,1 C 96 % 1029,5 hPa 0,0 mm 0,0 km/h (0 Bft) S-SO 195 0 min -0,7 C -0,1 C 0,0 km/h (0 Bft)
16.11.2018 07:45 -0,2 C 96 % 1029,3 hPa 0,0 mm 0,0 km/h (0 Bft) S-SO 195 0 min -0,8 C -0,2 C 0,0 km/h (0 Bft)
16.11.2018 07:30 -0,3 C 96 % 1029,1 hPa 0,0 mm 0,0 km/h (0 Bft) S-SO 195 0 min -0,9 C -0,3 C 0,0 km/h (0 Bft)
16.11.2018 07:15 -0,3 C 96 % 1029,0 hPa 0,0 mm 0,0 km/h (0 Bft) S-SO 195 0 min -0,9 C -0,3 C 0,0 km/h (0 Bft)
16.11.2018 07:00 -0,3 C 96 % 1029,0 hPa 0,0 mm 0,0 km/h (0 Bft) S-SO 195 0 min -0,9 C -0,3 C 0,0 km/h (0 Bft)
16.11.2018 06:45 -0,3 C 96 % 1028,8 hPa 0,0 mm 0,0 km/h (0 Bft) S-SO 195 0 min -0,9 C -0,3 C 1,6 km/h (1 Bft)
16.11.2018 06:30 -0,4 C 96 % 1028,7 hPa 0,0 mm 0,0 km/h (0 Bft) S-SO 195 0 min -1,0 C -0,4 C 0,0 km/h (0 Bft)
16.11.2018 06:15 -0,4 C 96 % 1028,6 hPa 0,0 mm 0,0 km/h (0 Bft) S-SO 195 0 min -1,0 C -0,4 C 0,0 km/h (0 Bft)
16.11.2018 06:00 -0,4 C 96 % 1028,5 hPa 0,0 mm 0,0 km/h (0 Bft) S-SO 195 0 min -1,0 C -0,4 C 0,0 km/h (0 Bft)
16.11.2018 05:45 -0,5 C 96 % 1028,5 hPa 0,0 mm 0,0 km/h (0 Bft) S-SO 195 0 min -1,1 C -0,5 C 0,0 km/h (0 Bft)
16.11.2018 05:30 -0,4 C 96 % 1028,4 hPa 0,0 mm 0,0 km/h (0 Bft) S-SO 195 0 min -1,0 C -0,4 C 0,0 km/h (0 Bft)
16.11.2018 05:15 -0,4 C 96 % 1028,2 hPa 0,0 mm 0,0 km/h (0 Bft) S-SO 195 0 min -1,0 C -0,4 C 0,0 km/h (0 Bft)
16.11.2018 05:00 -0,4 C 96 % 1028,2 hPa 0,0 mm 0,0 km/h (0 Bft) S-SO 195 0 min -1,0 C -0,4 C 0,0 km/h (0 Bft)
16.11.2018 04:45 -0,4 C 96 % 1028,1 hPa 0,0 mm 0,0 km/h (0 Bft) S-SO 195 0 min -1,0 C -0,4 C 0,0 km/h (0 Bft)
16.11.2018 04:30 -0,7 C 96 % 1028,2 hPa 0,0 mm 0,0 km/h (0 Bft) S-SO 195 0 min -1,3 C -0,7 C 0,0 km/h (0 Bft)
16.11.2018 04:15 -0,6 C 96 % 1028,1 hPa 0,0 mm 0,0 km/h (0 Bft) S-SO 195 0 min -1,2 C -0,6 C 0,0 km/h (0 Bft)
16.11.2018 04:00 -0,4 C 96 % 1028,0 hPa 0,0 mm 0,0 km/h (0 Bft) S-SO 195 0 min -1,0 C -0,4 C 0,0 km/h (0 Bft)
16.11.2018 03:45 -0,3 C 96 % 1027,9 hPa 0,0 mm 0,0 km/h (0 Bft) S-SO 195 0 min -0,9 C -0,3 C 0,0 km/h (0 Bft)
16.11.2018 03:30 -0,3 C 96 % 1028,0 hPa 0,0 mm 0,0 km/h (0 Bft) S-SO 195 0 min -0,9 C -0,3 C 0,0 km/h (0 Bft)
16.11.2018 03:15 -0,3 C 96 % 1027,9 hPa 0,0 mm 0,0 km/h (0 Bft) S-SO 195 0 min -0,9 C -0,3 C 0,0 km/h (0 Bft)
16.11.2018 03:00 -0,4 C 96 % 1027,9 hPa 0,0 mm 0,0 km/h (0 Bft) S-SO 195 0 min -1,0 C -0,4 C 0,0 km/h (0 Bft)
16.11.2018 02:45 -0,3 C 96 % 1027,9 hPa 0,0 mm 0,0 km/h (0 Bft) S-SO 195 0 min -0,9 C -0,3 C 0,0 km/h (0 Bft)
16.11.2018 02:30 -0,2 C 96 % 1028,0 hPa 0,0 mm 0,0 km/h (0 Bft) S-SO 195 0 min -0,8 C -0,2 C 0,0 km/h (0 Bft)
16.11.2018 02:15 -0,2 C 96 % 1028,0 hPa 0,0 mm 0,0 km/h (0 Bft) S-SO 195 0 min -0,8 C -0,2 C 0,0 km/h (0 Bft)
16.11.2018 02:00 -0,2 C 96 % 1027,9 hPa 0,0 mm 0,0 km/h (0 Bft) S-SO 195 0 min -0,8 C -0,2 C 0,0 km/h (0 Bft)
16.11.2018 01:45 -0,2 C 95 % 1027,9 hPa 0,0 mm 0,0 km/h (0 Bft) S-SO 195 0 min -0,9 C -0,2 C 0,0 km/h (0 Bft)
16.11.2018 01:30 -0,1 C 95 % 1027,8 hPa 0,0 mm 0,0 km/h (0 Bft) S-SO 195 0 min -0,8 C -0,1 C 0,0 km/h (0 Bft)
16.11.2018 01:15 -0,1 C 95 % 1027,8 hPa 0,0 mm 0,0 km/h (0 Bft) S-SO 195 0 min -0,8 C -0,1 C 0,0 km/h (0 Bft)
16.11.2018 01:00 -0,1 C 95 % 1027,7 hPa 0,0 mm 0,0 km/h (0 Bft) S-SO 195 0 min -0,8 C -0,1 C 1,6 km/h (1 Bft)
16.11.2018 00:45 0,0 C 95 % 1027,7 hPa 0,0 mm 0,0 km/h (0 Bft) S-SO 195 0 min -0,7 C 0,0 C 1,6 km/h (1 Bft)
16.11.2018 00:30 0,2 C 95 % 1027,7 hPa 0,0 mm 0,0 km/h (0 Bft) S-SO 200 0 min -0,5 C 0,2 C 3,2 km/h (1 Bft)
16.11.2018 00:15 0,4 C 95 % 1027,6 hPa 0,0 mm 0,0 km/h (0 Bft) S-SO 200 0 min -0,3 C 0,4 C 0,0 km/h (0 Bft)
16.11.2018 00:00 0,5 C 95 % 1027,6 hPa 0,0 mm 0,0 km/h (0 Bft) S-SO 200 0 min -0,2 C 0,5 C 0,0 km/h (0 Bft)
15.11.2018 22:45 1,2 C 95 % 1027,2 hPa 0,0 mm 0,0 km/h (0 Bft) S-SO 195 0 min 0,5 C 1,2 C 0,0 km/h (0 Bft)
15.11.2018 22:30 1,2 C 95 % 1027,2 hPa 0,0 mm 0,0 km/h (0 Bft) S-SO 195 0 min 0,5 C 1,2 C 1,6 km/h (1 Bft)
15.11.2018 22:15 1,4 C 94 % 1027,2 hPa 0,0 mm 0,0 km/h (0 Bft) S-SO 195 0 min 0,5 C 1,4 C 1,6 km/h (1 Bft)
15.11.2018 22:00 1,8 C 94 % 1027,0 hPa 0,0 mm 0,0 km/h (0 Bft) S 190 0 min 0,9 C 1,8 C 1,6 km/h (1 Bft)
15.11.2018 21:45 2,2 C 94 % 1027,0 hPa 0,0 mm 0,0 km/h (0 Bft) S 189 0 min 1,3 C 2,2 C 3,2 km/h (1 Bft)
15.11.2018 21:30 2,4 C 94 % 1026,9 hPa 0,0 mm 0,6 km/h (0 Bft) S 178 0 min 1,5 C 2,4 C 6,4 km/h (2 Bft)
15.11.2018 21:15 2,6 C 95 % 1026,7 hPa 0,0 mm 1,0 km/h (0 Bft) S 180 0 min 1,9 C 2,6 C 9,7 km/h (2 Bft)
15.11.2018 21:00 2,5 C 94 % 1026,7 hPa 0,0 mm 0,2 km/h (0 Bft) S 169 0 min 1,6 C 2,5 C 4,8 km/h (1 Bft)
15.11.2018 20:45 2,5 C 94 % 1026,7 hPa 0,0 mm 0,0 km/h (0 Bft) S 180 0 min 1,6 C 2,5 C 0,0 km/h (0 Bft)
15.11.2018 20:30 2,7 C 94 % 1026,6 hPa 0,0 mm 0,0 km/h (0 Bft) S 177 0 min 1,8 C 2,7 C 0,0 km/h (0 Bft)
15.11.2018 20:15 2,8 C 94 % 1026,4 hPa 0,0 mm 0,0 km/h (0 Bft) S 175 0 min 1,9 C 2,8 C 0,0 km/h (0 Bft)
15.11.2018 20:00 2,9 C 94 % 1026,4 hPa 0,0 mm 0,0 km/h (0 Bft) S 173 0 min 2,0 C 2,9 C 0,0 km/h (0 Bft)
15.11.2018 19:45 3,1 C 93 % 1026,4 hPa 0,0 mm 0,0 km/h (0 Bft) S-SE 164 0 min 2,1 C 3,1 C 0,0 km/h (0 Bft)
15.11.2018 19:30 3,1 C 93 % 1026,3 hPa 0,0 mm 0,0 km/h (0 Bft) S-SE 153 0 min 2,1 C 3,1 C 0,0 km/h (0 Bft)
15.11.2018 19:15 3,2 C 91 % 1026,2 hPa 0,0 mm 0,0 km/h (0 Bft) S-SO 205 0 min 1,9 C 3,2 C 0,0 km/h (0 Bft)
15.11.2018 19:00 3,6 C 90 % 1026,2 hPa 0,0 mm 0,0 km/h (0 Bft) S-SO 205 0 min 2,1 C 3,6 C 0,0 km/h (0 Bft)
15.11.2018 18:45 3,9 C 90 % 1026,1 hPa 0,0 mm 0,0 km/h (0 Bft) S-SO 205 0 min 2,4 C 3,9 C 0,0 km/h (0 Bft)
15.11.2018 18:30 4,2 C 90 % 1026,1 hPa 0,0 mm 0,0 km/h (0 Bft) S-SO 205 0 min 2,7 C 4,2 C 0,0 km/h (0 Bft)
15.11.2018 18:15 4,4 C 90 % 1026,1 hPa 0,0 mm 0,0 km/h (0 Bft) S-SO 205 0 min 2,9 C 4,4 C 0,0 km/h (0 Bft)
15.11.2018 18:00 4,6 C 89 % 1026,1 hPa 0,0 mm 0,0 km/h (0 Bft) S-SO 205 0 min 2,9 C 4,6 C 0,0 km/h (0 Bft)
15.11.2018 17:45 5,1 C 88 % 1026,0 hPa 0,0 mm 0,0 km/h (0 Bft) SO 215 0 min 3,3 C 5,1 C 0,0 km/h (0 Bft)
15.11.2018 17:30 5,7 C 87 % 1025,9 hPa 0,0 mm 0,0 km/h (0 Bft) SO 215 0 min 3,7 C 5,7 C 0,0 km/h (0 Bft)
15.11.2018 17:15 6,0 C 86 % 1026,0 hPa 0,0 mm 0,0 km/h (0 Bft) SO 215 0 min 3,8 C 6,0 C 0,0 km/h (0 Bft)
15.11.2018 17:00 6,1 C 86 % 1025,8 hPa 0,0 mm 0,0 km/h (0 Bft) SO 215 0 min 3,9 C 6,1 C 0,0 km/h (0 Bft)
15.11.2018 16:45 6,3 C 86 % 1025,7 hPa 0,0 mm 0,0 km/h (0 Bft) SO 215 0 min 4,1 C 6,3 C 0,0 km/h (0 Bft)
15.11.2018 16:30 6,6 C 85 % 1025,7 hPa 0,0 mm 0,0 km/h (0 Bft) SO 215 0 min 4,3 C 6,6 C 0,0 km/h (0 Bft)
15.11.2018 16:15 6,9 C 84 % 1025,7 hPa 0,0 mm 0,0 km/h (0 Bft) SO 215 0 min 4,4 C 6,9 C 0,0 km/h (0 Bft)
15.11.2018 16:00 7,1 C 83 % 1025,7 hPa 0,0 mm 0,2 km/h (0 Bft) SO 215 0 min 4,4 C 7,1 C 4,8 km/h (1 Bft)
15.11.2018 15:45 7,2 C 83 % 1025,6 hPa 0,0 mm 0,7 km/h (0 Bft) SO 221 0 min 4,5 C 7,2 C 6,4 km/h (2 Bft)
15.11.2018 15:30 7,2 C 83 % 1025,6 hPa 0,0 mm 3,4 km/h (1 Bft) SO 215 0 min 4,5 C 7,2 C 9,7 km/h (2 Bft)
15.11.2018 15:15 7,2 C 83 % 1025,5 hPa 0,0 mm 2,0 km/h (1 Bft) S-SO 205 0 min 4,5 C 7,2 C 9,7 km/h (2 Bft)
15.11.2018 15:00 7,2 C 84 % 1025,6 hPa 0,0 mm 1,6 km/h (1 Bft) S-SO 195 0 min 4,7 C 7,2 C 9,7 km/h (2 Bft)
15.11.2018 14:45 7,0 C 84 % 1025,6 hPa 0,0 mm 2,5 km/h (1 Bft) S 169 15 min 4,5 C 7,0 C 12,9 km/h (3 Bft)
15.11.2018 14:30 6,8 C 85 % 1025,7 hPa 0,0 mm 2,6 km/h (1 Bft) SE 132 15 min 4,5 C 6,8 C 9,7 km/h (2 Bft)
15.11.2018 14:15 6,3 C 86 % 1025,7 hPa 0,0 mm 2,5 km/h (1 Bft) S-SE 147 15 min 4,1 C 6,3 C 11,3 km/h (2 Bft)
15.11.2018 14:00 6,3 C 85 % 1025,7 hPa 0,0 mm 5,4 km/h (1 Bft) S-SE 165 0 min 4,0 C 5,4 C 16,1 km/h (3 Bft)
15.11.2018 13:45 6,6 C 84 % 1025,8 hPa 0,0 mm 5,5 km/h (1 Bft) S 170 15 min 4,1 C 5,7 C 19,3 km/h (3 Bft)
15.11.2018 13:30 6,3 C 85 % 1026,1 hPa 0,0 mm 4,1 km/h (1 Bft) S 187 15 min 4,0 C 6,3 C 12,9 km/h (3 Bft)
15.11.2018 13:15 6,2 C 85 % 1026,3 hPa 0,0 mm 4,4 km/h (1 Bft) S 187 15 min 3,9 C 6,2 C 17,7 km/h (3 Bft)
15.11.2018 13:00 6,1 C 85 % 1026,4 hPa 0,0 mm 4,8 km/h (1 Bft) S 169 0 min 3,8 C 5,4 C 14,5 km/h (3 Bft)
15.11.2018 12:45 6,0 C 85 % 1026,3 hPa 0,0 mm 4,0 km/h (1 Bft) S-SE 163 0 min 3,7 C 6,0 C 19,3 km/h (3 Bft)
15.11.2018 12:30 5,9 C 86 % 1026,4 hPa 0,0 mm 5,8 km/h (2 Bft) SE 144 0 min 3,7 C 4,8 C 16,1 km/h (3 Bft)
15.11.2018 12:15 5,8 C 86 % 1026,3 hPa 0,0 mm 2,9 km/h (1 Bft) S-SE 161 0 min 3,6 C 5,8 C 12,9 km/h (3 Bft)
15.11.2018 12:00 5,6 C 87 % 1026,4 hPa 0,0 mm 2,9 km/h (1 Bft) S-SE 161 0 min 3,6 C 5,6 C 12,9 km/h (3 Bft)
_ Min-Heure 04:30 15:15 15:15 - 16:15 - - - 04:30 04:30 16:15
Minimum _ -0,7 C 83 % 1025,5 hPa - 0,0 km/h (0 Bft) - - - -1,3 C -0,7 C 0,0 km/h (0 Bft)
_ Max-Heure 15:00 02:00 09:00 12:00 12:30 - - 13:15 15:00 15:00 12:45
Maximum _ 7,2 C 96 % 1030,3 hPa 0,0 mm 5,8 km/h
SE (2 Bft)
- - 15 min 4,7 C 7,2 C 19,3 km/h
S-SE (3 Bft)
Moyenne _ 2,7 C 92 % 1027,4 hPa #0,0 mm 0,8 km/h (0 Bft) S-SE - #2:00 h 1,4 C 2,7 C 3,5 km/h (1 Bft)